Terminal Aerodrome Forecast
Issued by NWS

Home | Current Version | Previous Version | Text Only | Print | Product List | Glossary On
Versions: 1 2 3 4 5 6 7 8 9 10 11 12 13 14 15 16 17 18 19 20 21 22 23 24 25 26 27
000
FTAK31 PAJN 021400 AAA
TAFAYA
TAF AMD
PAYA 021433Z 0215/0312 14003KT P6SM BKN005 OVC010
     FM021800 16008KT P6SM VCSH SCT008 OVC021
     FM022100 16008KT P6SM VCSH SCT007 OVC021
     FM030200 16005KT P6SM VCSH SCT007 OVC015
      AMD LTD TO CLD VIS AND WIND 0301/0310=

USA.gov is the U.S. government's official web portal to all federal, state and local government web resources and services.